Flint, MI (48554)

11:59 PM EST on February 12, 2016 (GMT -0500)
Gaines TWP | | Change Station
CLOSE
Current Station
Personal Weather Station
Location: Swartz Creek, MI
Elevation: 807 ft
Nearby Weather Stations

Elev 807 ft 42.90 °N, 83.82 °W | Updated 10 seconds ago

Overcast
Overcast
5.9 °F
Feels Like -6 °F
N
7.2
Wind Variable Wind from NNW
Gusts 9.8 mph

Today
High -- | Low -- °F
--% Chance of Precip.
Yesterday
High -- | Low -- °F
Precip. -- in
Pressure 30.29 in
Visibility 5.0 miles
Clouds Scattered Clouds 2500 ft
Overcast 4000 ft
Windchill -6 °F
Dew Point -8 °F
Humidity 51%
Rainfall 0.00 in
Snow Depth Not available.
7:37 AM 6:02 PM
Waxing Crescent, 27% visible
METAR KFNT 130450Z AUTO 32012KT 5SM -SN SCT025 OVC040 M13/M18 A3024 RMK AO2 SLP257 P0001 T11331183 410441133
Pressure 30.29 in
Visibility 5.0 miles
Clouds Scattered Clouds 2500 ft
Overcast 4000 ft
Windchill -6 °F
Dew Point -8 °F
Humidity 51%
Rainfall 0.00 in
Snow Depth Not available.
7:37 AM 6:02 PM
Waxing Crescent, 27% visible
METAR KFNT 130450Z AUTO 32012KT 5SM -SN SCT025 OVC040 M13/M18 A3024 RMK AO2 SLP257 P0001 T11331183 410441133

10-Day Weather Forecast

Almanac

Astronomy

Feb. 12, 2016 Rise Set
Actual Time
Civil Twilight
Nautical Twilight
Astronomical Twilight
Moon
Length of Visible Light
Length of Day
Tomorrow will be .
, % of the Moon is Illuminated

Today's Extremes

State Highs State Lows

Community

WunderPhotos

Upload Photos

1,892,501 photos uploaded!

WunderBlog® & News

Nearby

Air Quality

  Air Quality AQ Index Pollutant
Not available.

Snow Depth

Station Depth Elevation

Earthquake Activity

City Distance Mag. Time & Date
Minimum magnitude displayed is 2.5.

Coastal Water Temperatures

Place Temperature

Stations

Nearby Weather Stations

Station Location Temp. Windchill Dew Point Humidity Wind Precip. Elev Updated Type
                   

Watches & Warnings

There are currently no watches in effect.